Time;durP1;ratioP1;P1;durP2;ratioP2;P2;SDS_P1;SDS_P2;PMS_P1;PMS_P2;Temp;Humidity;BMP_temperature;BMP_pressure;BME280_temperature;BME280_humidity;BME280_pressure;Samples;Min_cycle;Max_cycle;Signal;HPM_P1;HPM_P2
2022/03/18 00:00:40;;;;;;;3.97;2.08;;;;;9.50;103719.00;;;;4987763;28;20256;-76
2022/03/18 00:03:08;;;;;;;7.78;2.72;;;;;9.40;103724.00;;;;4988157;28;20220;-76
2022/03/18 00:05:36;;;;;;;3.35;1.73;;;;;9.40;103721.00;;;;4988668;28;20201;-76
2022/03/18 00:08:04;;;;;;;4.07;2.10;;;;;9.40;103724.00;;;;4985754;28;20583;-76
2022/03/18 00:10:33;;;;;;;3.92;1.60;;;;;9.40;103727.00;;;;4988970;28;20296;-76
2022/03/18 00:13:01;;;;;;;5.28;1.60;;;;;9.40;103728.00;;;;4988060;28;20197;-76
2022/03/18 00:15:29;;;;;;;3.47;1.60;;;;;9.40;103729.00;;;;4987665;28;20226;-76
2022/03/18 00:17:57;;;;;;;5.93;1.83;;;;;9.40;103733.00;;;;4987508;28;20621;-77
2022/03/18 00:20:24;;;;;;;3.88;1.88;;;;;9.30;103730.00;;;;4987859;28;20205;-74
2022/03/18 00:22:52;;;;;;;5.18;2.05;;;;;9.30;103744.00;;;;4989861;28;20224;-74
2022/03/18 00:25:20;;;;;;;3.88;1.83;;;;;9.30;103750.00;;;;4990245;28;20206;-74
2022/03/18 00:27:48;;;;;;;5.63;1.58;;;;;9.30;103755.00;;;;4991704;28;20703;-76
2022/03/18 00:30:18;;;;;;;6.22;1.60;;;;;9.30;103757.00;;;;4991113;28;20248;-77
2022/03/18 00:32:49;;;;;;;3.83;1.50;;;;;9.30;103753.00;;;;4993988;28;20198;-76
2022/03/18 00:35:17;;;;;;;3.97;1.77;;;;;9.20;103755.00;;;;4988492;28;20205;-76
2022/03/18 00:37:44;;;;;;;4.53;1.63;;;;;9.20;103761.00;;;;4985051;28;20198;-76
2022/03/18 00:40:11;;;;;;;5.85;1.80;;;;;9.20;103761.00;;;;4990953;28;20198;-77
2022/03/18 00:42:39;;;;;;;3.58;1.70;;;;;9.20;103761.00;;;;4991219;28;20210;-76
2022/03/18 00:45:07;;;;;;;3.92;1.88;;;;;9.20;103766.00;;;;4990297;28;20200;-76
2022/03/18 00:53:06;;;;;;;3.47;1.58;;;;;9.10;103760.00;;;;4983208;28;20699;-77
2022/03/18 00:55:33;;;;;;;1.70;1.55;;;;;9.10;103759.00;;;;4990541;28;20607;-77
2022/03/18 00:58:00;;;;;;;2.92;1.27;;;;;9.10;103758.00;;;;4991315;28;20675;-77
2022/03/18 01:00:28;;;;;;;2.80;1.60;;;;;9.10;103756.00;;;;4987441;28;21078;-77
2022/03/18 01:02:56;;;;;;;5.38;1.83;;;;;9.10;103755.00;;;;4991581;28;20216;-77
2022/03/18 01:05:23;;;;;;;2.53;1.35;;;;;9.10;103750.00;;;;4986218;28;20198;-76
2022/03/18 01:07:51;;;;;;;3.38;1.92;;;;;9.00;103746.00;;;;4991891;28;20708;-77
2022/03/18 01:10:18;;;;;;;5.45;2.05;;;;;9.00;103742.00;;;;4990479;28;20198;-77
2022/03/18 01:12:45;;;;;;;8.30;1.83;;;;;9.00;103751.00;;;;4989667;28;20217;-74
2022/03/18 01:15:13;;;;;;;4.03;1.98;;;;;9.00;103750.00;;;;4985170;28;20716;-76
2022/03/18 01:17:40;;;;;;;3.83;1.80;;;;;9.00;103758.00;;;;4988851;28;20228;-76
2022/03/18 01:20:10;;;;;;;3.10;1.70;;;;;9.00;103755.00;;;;4989672;28;20746;-74
2022/03/18 01:22:38;;;;;;;3.10;2.13;;;;;9.00;103750.00;;;;4991308;28;20202;-75
2022/03/18 01:25:06;;;;;;;6.22;2.35;;;;;9.00;103758.00;;;;4988688;28;20198;-75
2022/03/18 01:27:33;;;;;;;2.83;2.20;;;;;9.00;103758.00;;;;4990478;28;20221;-74
2022/03/18 01:30:00;;;;;;;3.53;2.15;;;;;9.00;103756.00;;;;4990039;28;20205;-74
2022/03/18 01:32:28;;;;;;;5.53;1.92;;;;;9.00;103758.00;;;;4989822;28;20260;-74
2022/03/18 01:34:55;;;;;;;5.40;2.58;;;;;8.90;103751.00;;;;4989970;28;20240;-76
2022/03/18 01:37:24;;;;;;;4.82;2.20;;;;;8.90;103749.00;;;;4981733;28;21002;-74
2022/03/18 01:39:51;;;;;;;5.30;2.55;;;;;8.90;103751.00;;;;4990746;28;20205;-74
2022/03/18 01:42:18;;;;;;;8.35;3.08;;;;;8.90;103748.00;;;;4989201;28;21224;-74
2022/03/18 01:44:47;;;;;;;12.73;4.20;;;;;8.90;103751.00;;;;4989407;28;20672;-74
2022/03/18 01:47:15;;;;;;;4.72;2.38;;;;;8.90;103743.00;;;;4989485;28;20312;-74
2022/03/18 01:49:42;;;;;;;4.80;2.22;;;;;8.90;103748.00;;;;4989899;28;20320;-75
2022/03/18 01:52:11;;;;;;;3.28;1.92;;;;;8.90;103763.00;;;;4989438;28;20205;-74
2022/03/18 01:54:47;;;;;;;3.53;2.15;;;;;8.90;103758.00;;;;4988786;28;20206;-74
2022/03/18 01:57:18;;;;;;;3.50;2.28;;;;;8.90;103763.00;;;;4995223;28;20659;-74
2022/03/18 01:59:45;;;;;;;2.85;2.08;;;;;8.90;103769.00;;;;4991942;28;20293;-76
2022/03/18 02:02:13;;;;;;;5.50;2.40;;;;;8.90;103769.00;;;;4984067;28;20206;-74
2022/03/18 02:04:40;;;;;;;4.68;2.38;;;;;8.80;103772.00;;;;4977552;28;20221;-75
2022/03/18 02:07:08;;;;;;;4.30;2.42;;;;;8.80;103770.00;;;;4988810;28;20284;-75
2022/03/18 02:09:36;;;;;;;3.47;2.28;;;;;8.80;103766.00;;;;4989841;28;20232;-74
2022/03/18 02:12:06;;;;;;;3.72;2.03;;;;;8.80;103776.00;;;;4987978;28;20197;-74
2022/03/18 02:14:35;;;;;;;4.47;2.35;;;;;8.80;103788.00;;;;4990129;28;20252;-74
2022/03/18 02:17:04;;;;;;;5.07;1.95;;;;;8.80;103781.00;;;;4987836;28;20695;-75
2022/03/18 02:19:32;;;;;;;2.97;2.03;;;;;8.80;103773.00;;;;4989460;28;20201;-74
2022/03/18 02:22:01;;;;;;;4.85;1.85;;;;;8.80;103780.00;;;;4988939;28;20695;-75
2022/03/18 02:24:29;;;;;;;2.63;1.90;;;;;8.70;103777.00;;;;4987850;28;20209;-74
2022/03/18 02:26:57;;;;;;;3.55;1.80;;;;;8.80;103787.00;;;;4988506;28;20206;-74
2022/03/18 02:29:24;;;;;;;6.25;2.17;;;;;8.70;103786.00;;;;4989759;28;20217;-74
2022/03/18 02:31:52;;;;;;;2.90;1.98;;;;;8.70;103783.00;;;;4999853;28;20287;-74
2022/03/18 02:34:20;;;;;;;5.07;2.03;;;;;8.70;103782.00;;;;4988888;28;20256;-75
2022/03/18 02:36:47;;;;;;;3.30;1.88;;;;;8.70;103779.00;;;;4989096;28;20683;-74
2022/03/18 02:39:15;;;;;;;3.88;1.80;;;;;8.70;103781.00;;;;4989619;28;20198;-74
2022/03/18 02:41:43;;;;;;;3.47;2.30;;;;;8.70;103784.00;;;;4989545;28;20209;-75
2022/03/18 02:44:10;;;;;;;2.80;1.80;;;;;8.70;103788.00;;;;4988009;28;20201;-74
2022/03/18 02:46:38;;;;;;;4.22;2.17;;;;;8.70;103782.00;;;;4988216;28;20197;-74
2022/03/18 02:49:06;;;;;;;2.65;1.45;;;;;8.70;103785.00;;;;4990219;28;20222;-74
2022/03/18 02:51:36;;;;;;;3.90;2.47;;;;;8.70;103789.00;;;;4989608;28;20646;-74
2022/03/18 02:54:04;;;;;;;3.58;2.20;;;;;8.70;103787.00;;;;4988958;28;20201;-74
2022/03/18 02:56:32;;;;;;;2.42;1.70;;;;;8.70;103793.00;;;;4988269;28;20212;-74
2022/03/18 02:59:01;;;;;;;3.95;2.42;;;;;8.60;103800.00;;;;4988492;28;20208;-74
2022/03/18 03:01:30;;;;;;;5.18;2.40;;;;;8.60;103799.00;;;;4989244;28;20201;-74
2022/03/18 03:03:58;;;;;;;2.88;2.03;;;;;8.60;103811.00;;;;4987184;28;20221;-74
2022/03/18 03:09:10;;;;;;;4.47;1.88;;;;;8.60;103814.00;;;;4984326;28;20231;-74
2022/03/18 03:11:37;;;;;;;6.68;2.40;;;;;8.60;103810.00;;;;4988799;28;20225;-74
2022/03/18 03:14:06;;;;;;;5.55;2.05;;;;;8.60;103812.00;;;;4988293;28;20229;-74
2022/03/18 03:16:34;;;;;;;5.63;2.33;;;;;8.50;103815.00;;;;4988071;28;20197;-74
2022/03/18 03:19:03;;;;;;;5.55;2.40;;;;;8.50;103812.00;;;;4988036;28;20205;-74
2022/03/18 03:21:30;;;;;;;3.15;2.20;;;;;8.50;103816.00;;;;4985315;28;21134;-74
2022/03/18 03:23:58;;;;;;;5.18;2.40;;;;;8.50;103815.00;;;;4997432;28;20209;-74
2022/03/18 03:26:25;;;;;;;5.13;2.50;;;;;8.50;103826.00;;;;4988989;28;20606;-74
2022/03/18 03:28:52;;;;;;;4.65;2.50;;;;;8.50;103833.00;;;;4988265;28;20217;-74
2022/03/18 03:31:21;;;;;;;4.50;2.15;;;;;8.40;103837.00;;;;4988405;28;20228;-74
2022/03/18 03:33:48;;;;;;;3.60;2.10;;;;;8.40;103836.00;;;;4988603;28;20202;-74
2022/03/18 03:36:15;;;;;;;5.47;2.28;;;;;8.40;103833.00;;;;4988050;28;20252;-74
2022/03/18 03:38:43;;;;;;;4.20;2.45;;;;;8.40;103841.00;;;;4988829;28;20661;-75
2022/03/18 03:41:11;;;;;;;7.05;2.45;;;;;8.40;103839.00;;;;4996373;28;20248;-74
2022/03/18 03:43:39;;;;;;;4.55;2.08;;;;;8.40;103850.00;;;;4988341;28;20209;-74
2022/03/18 03:46:06;;;;;;;3.58;2.03;;;;;8.40;103854.00;;;;4983934;28;20288;-74
2022/03/18 03:48:34;;;;;;;2.50;1.92;;;;;8.30;103851.00;;;;4984493;28;20643;-74
2022/03/18 03:51:01;;;;;;;3.55;1.58;;;;;8.30;103848.00;;;;4988771;28;20214;-74
2022/03/18 03:53:29;;;;;;;5.30;2.30;;;;;8.30;103857.00;;;;4988487;28;20260;-75
2022/03/18 03:55:56;;;;;;;3.28;2.38;;;;;8.30;103854.00;;;;4988995;28;20992;-74
2022/03/18 03:58:23;;;;;;;5.65;2.10;;;;;8.30;103849.00;;;;4989667;28;20882;-74
2022/03/18 04:00:50;;;;;;;3.65;1.98;;;;;8.30;103854.00;;;;4991880;28;20267;-74
2022/03/18 04:03:18;;;;;;;4.72;2.13;;;;;8.30;103853.00;;;;4992165;28;21079;-74
2022/03/18 04:05:46;;;;;;;2.85;2.15;;;;;8.20;103859.00;;;;4993272;28;20206;-74
2022/03/18 04:08:14;;;;;;;3.85;2.28;;;;;8.20;103858.00;;;;4990849;28;20638;-74
2022/03/18 04:10:42;;;;;;;5.50;2.53;;;;;8.20;103852.00;;;;4992109;28;20201;-75
2022/03/18 04:13:10;;;;;;;4.25;2.10;;;;;8.20;103860.00;;;;4991182;28;20221;-75
2022/03/18 04:15:38;;;;;;;3.65;2.28;;;;;8.20;103852.00;;;;4991849;28;20321;-75
2022/03/18 04:18:05;;;;;;;4.22;2.20;;;;;8.20;103856.00;;;;4991195;28;20216;-75
2022/03/18 04:20:33;;;;;;;3.42;2.47;;;;;8.20;103853.00;;;;4991382;28;20194;-75
2022/03/18 04:23:02;;;;;;;6.25;2.38;;;;;8.20;103844.00;;;;4991211;28;20734;-75
2022/03/18 04:25:31;;;;;;;3.63;2.60;;;;;8.20;103854.00;;;;4992281;28;20344;-75
2022/03/18 04:27:58;;;;;;;3.63;2.47;;;;;8.20;103860.00;;;;4991851;28;20633;-75
2022/03/18 04:30:26;;;;;;;5.50;3.13;;;;;8.20;103859.00;;;;4993165;28;20674;-75
2022/03/18 04:32:53;;;;;;;7.03;3.08;;;;;8.20;103868.00;;;;4988981;28;20202;-75
2022/03/18 04:35:21;;;;;;;6.20;3.13;;;;;8.20;103868.00;;;;4992210;28;20208;-75
2022/03/18 04:37:49;;;;;;;5.20;3.15;;;;;8.20;103869.00;;;;4990609;28;20246;-75
2022/03/18 04:40:18;;;;;;;4.50;3.47;;;;;8.10;103875.00;;;;4990030;28;20683;-75
2022/03/18 04:42:45;;;;;;;6.55;4.18;;;;;8.20;103877.00;;;;4991499;28;20198;-75
2022/03/18 04:45:13;;;;;;;4.13;3.45;;;;;8.10;103884.00;;;;4991062;28;20280;-75
2022/03/18 04:47:40;;;;;;;5.35;3.30;;;;;8.10;103883.00;;;;5000752;28;20672;-74
2022/03/18 04:50:10;;;;;;;4.70;3.38;;;;;8.10;103881.00;;;;4991166;28;20230;-74
2022/03/18 04:52:37;;;;;;;4.35;3.13;;;;;8.10;103888.00;;;;4992098;28;20212;-75
2022/03/18 04:55:05;;;;;;;6.90;3.90;;;;;8.10;103889.00;;;;4991222;28;20206;-75
2022/03/18 04:57:34;;;;;;;5.57;3.50;;;;;8.10;103888.00;;;;4982094;28;20261;-75
2022/03/18 05:00:01;;;;;;;6.13;4.05;;;;;8.10;103896.00;;;;4973031;28;20217;-75
2022/03/18 05:02:29;;;;;;;7.78;4.10;;;;;8.10;103903.00;;;;4987689;28;20194;-75
2022/03/18 05:04:56;;;;;;;5.72;4.07;;;;;8.10;103903.00;;;;5001066;28;20224;-75
2022/03/18 05:07:24;;;;;;;6.63;3.85;;;;;8.10;103893.00;;;;4990614;28;21009;-75
2022/03/18 05:09:51;;;;;;;9.25;4.70;;;;;8.10;103899.00;;;;4991019;28;20327;-76
2022/03/18 05:12:19;;;;;;;7.65;4.88;;;;;8.10;103893.00;;;;4991149;28;20202;-75
2022/03/18 05:14:47;;;;;;;6.93;4.13;;;;;8.00;103896.00;;;;4991808;28;20950;-75
2022/03/18 05:17:15;;;;;;;7.75;5.25;;;;;8.00;103890.00;;;;4994701;28;20200;-75
2022/03/18 05:19:42;;;;;;;7.43;4.43;;;;;8.00;103890.00;;;;5011450;28;20263;-75
2022/03/18 05:22:09;;;;;;;5.32;4.35;;;;;8.00;103897.00;;;;4998151;28;20197;-76
2022/03/18 05:24:37;;;;;;;7.43;5.38;;;;;8.00;103904.00;;;;4989619;28;20597;-76
2022/03/18 05:27:04;;;;;;;8.90;5.35;;;;;8.00;103905.00;;;;4990331;28;20256;-75
2022/03/18 05:29:32;;;;;;;6.72;4.85;;;;;8.00;103900.00;;;;4989597;28;20218;-76
2022/03/18 05:32:02;;;;;;;7.68;5.35;;;;;8.00;103902.00;;;;4989012;28;20206;-76
2022/03/18 05:34:30;;;;;;;9.00;6.00;;;;;8.00;103909.00;;;;4987671;28;20198;-75
2022/03/18 05:36:57;;;;;;;8.57;5.45;;;;;8.00;103917.00;;;;4987351;28;21076;-75
2022/03/18 05:39:24;;;;;;;8.88;5.53;;;;;8.00;103931.00;;;;4987204;28;20197;-76
2022/03/18 05:41:52;;;;;;;8.63;5.63;;;;;8.00;103926.00;;;;4985018;28;20194;-74
2022/03/18 05:44:19;;;;;;;10.15;5.68;;;;;8.00;103929.00;;;;4984752;28;21325;-76
2022/03/18 05:46:47;;;;;;;7.05;5.70;;;;;8.00;103926.00;;;;4987155;28;20213;-76
2022/03/18 05:49:17;;;;;;;5.93;4.97;;;;;8.00;103939.00;;;;4985880;28;20228;-76
2022/03/18 05:51:44;;;;;;;8.35;5.25;;;;;8.00;103939.00;;;;4987480;28;20664;-76
2022/03/18 05:54:12;;;;;;;10.60;5.57;;;;;8.00;103938.00;;;;4986754;28;20579;-75
2022/03/18 05:56:55;;;;;;;11.82;6.03;;;;;8.00;103941.00;;;;4988870;28;20202;-76
2022/03/18 05:59:23;;;;;;;8.65;5.72;;;;;8.00;103953.00;;;;4985643;28;20193;-76
2022/03/18 06:01:50;;;;;;;7.85;5.80;;;;;8.00;103958.00;;;;4986378;28;20216;-76
2022/03/18 06:04:20;;;;;;;9.50;6.10;;;;;8.00;103961.00;;;;4987111;28;20300;-76
2022/03/18 06:06:48;;;;;;;10.43;6.18;;;;;8.00;103960.00;;;;4985836;28;20738;-76
2022/03/18 06:12:01;;;;;;;8.82;5.15;;;;;8.00;103963.00;;;;4986348;28;20971;-74
2022/03/18 06:14:30;;;;;;;7.75;5.38;;;;;8.00;103972.00;;;;4988267;28;20271;-76
2022/03/18 06:16:59;;;;;;;12.77;6.63;;;;;8.10;103973.00;;;;4988110;28;20216;-76
2022/03/18 06:19:30;;;;;;;9.63;6.22;;;;;8.10;103976.00;;;;4986814;28;20202;-76
2022/03/18 06:21:58;;;;;;;9.27;5.72;;;;;8.10;103981.00;;;;4984166;28;20217;-76
2022/03/18 06:24:26;;;;;;;8.98;6.13;;;;;8.10;103989.00;;;;4986885;28;21065;-76
2022/03/18 06:26:54;;;;;;;8.32;5.75;;;;;8.10;103994.00;;;;4980268;28;20242;-75
2022/03/18 06:29:23;;;;;;;7.90;5.35;;;;;8.20;103985.00;;;;4986980;28;20579;-76
2022/03/18 06:31:51;;;;;;;8.60;6.30;;;;;8.20;103985.00;;;;4988770;28;20202;-75
2022/03/18 06:34:20;;;;;;;7.78;5.15;;;;;8.20;103989.00;;;;4986530;28;20953;-75
2022/03/18 06:36:50;;;;;;;9.25;5.45;;;;;8.20;103985.00;;;;4987595;28;20635;-76
2022/03/18 06:39:19;;;;;;;9.80;6.00;;;;;8.30;103985.00;;;;4987991;28;20691;-75
2022/03/18 06:41:46;;;;;;;9.05;5.47;;;;;8.40;103992.00;;;;4988448;28;20634;-75
2022/03/18 06:44:13;;;;;;;11.13;6.43;;;;;8.40;103991.00;;;;4985000;28;20206;-76
2022/03/18 06:46:41;;;;;;;8.05;5.40;;;;;8.40;103995.00;;;;4990852;28;20202;-76
2022/03/18 06:49:09;;;;;;;9.63;5.30;;;;;8.50;104005.00;;;;4987800;28;20225;-76
2022/03/18 06:51:36;;;;;;;6.55;4.90;;;;;8.60;104014.00;;;;4988312;28;20208;-76
2022/03/18 06:54:05;;;;;;;7.28;4.80;;;;;8.60;104007.00;;;;4988494;28;20208;-76
2022/03/18 06:56:33;;;;;;;7.13;4.95;;;;;8.70;104000.00;;;;4995857;28;20268;-78
2022/03/18 06:59:01;;;;;;;6.47;4.45;;;;;8.80;104010.00;;;;4986303;28;20206;-75
2022/03/18 07:01:28;;;;;;;8.02;4.80;;;;;8.80;104017.00;;;;4988541;28;20229;-77
2022/03/18 07:03:55;;;;;;;10.85;5.07;;;;;8.90;104029.00;;;;4992447;28;20920;-77
2022/03/18 07:06:23;;;;;;;10.00;5.22;;;;;9.00;104034.00;;;;4995303;28;20209;-77
2022/03/18 07:08:50;;;;;;;8.05;5.30;;;;;9.10;104029.00;;;;4996606;28;20209;-76
2022/03/18 07:11:19;;;;;;;6.25;4.50;;;;;9.10;104034.00;;;;4996581;28;20205;-77
2022/03/18 07:13:46;;;;;;;9.70;5.47;;;;;9.20;104048.00;;;;4998292;28;20782;-77
2022/03/18 07:18:58;;;;;;;8.70;5.10;;;;;9.40;104042.00;;;;4997969;28;20300;-77
2022/03/18 07:21:25;;;;;;;7.63;4.57;;;;;9.50;104044.00;;;;4998566;28;20201;-77
2022/03/18 07:23:53;;;;;;;8.25;5.20;;;;;9.60;104046.00;;;;4999070;28;20202;-76
2022/03/18 07:26:21;;;;;;;7.85;4.72;;;;;9.70;104054.00;;;;4998240;28;20209;-77
2022/03/18 07:28:49;;;;;;;9.43;5.45;;;;;9.80;104044.00;;;;4997530;28;20225;-77
2022/03/18 07:31:16;;;;;;;7.05;4.65;;;;;9.90;104044.00;;;;4999279;28;20205;-76
2022/03/18 07:33:43;;;;;;;7.55;4.57;;;;;10.00;104054.00;;;;4999771;28;20200;-77
2022/03/18 07:36:10;;;;;;;8.77;5.20;;;;;10.10;104053.00;;;;4999344;28;20198;-77
2022/03/18 07:38:38;;;;;;;9.35;5.18;;;;;10.20;104057.00;;;;5009191;28;20201;-77
2022/03/18 07:41:05;;;;;;;8.85;4.63;;;;;10.30;104057.00;;;;5000312;28;20205;-77
2022/03/18 07:43:34;;;;;;;8.73;5.03;;;;;10.40;104058.00;;;;5000184;28;20206;-77
2022/03/18 07:46:01;;;;;;;7.55;5.32;;;;;10.60;104066.00;;;;5001498;28;20198;-77
2022/03/18 07:48:28;;;;;;;9.95;4.90;;;;;10.70;104067.00;;;;5001769;28;20201;-77
2022/03/18 07:50:56;;;;;;;8.38;4.97;;;;;10.80;104075.00;;;;5001901;28;20615;-76
2022/03/18 07:53:24;;;;;;;7.50;4.93;;;;;10.90;104070.00;;;;5002984;28;20280;-77
2022/03/18 07:55:52;;;;;;;7.10;5.40;;;;;11.10;104072.00;;;;5006644;28;20292;-76
2022/03/18 07:58:19;;;;;;;9.27;5.90;;;;;11.20;104084.00;;;;5004033;28;20205;-76
2022/03/18 08:00:47;;;;;;;9.38;5.85;;;;;11.30;104085.00;;;;5005427;28;20224;-76
2022/03/18 08:03:15;;;;;;;8.60;5.18;;;;;11.40;104084.00;;;;5004805;28;20225;-76
2022/03/18 08:05:42;;;;;;;8.80;5.20;;;;;11.60;104090.00;;;;5005207;28;20201;-77
2022/03/18 08:08:10;;;;;;;6.95;4.90;;;;;11.70;104093.00;;;;5005640;28;20205;-77
2022/03/18 08:10:38;;;;;;;9.23;5.13;;;;;11.90;104090.00;;;;5005145;28;20224;-76
2022/03/18 08:13:06;;;;;;;7.20;4.53;;;;;12.00;104097.00;;;;5018570;28;20249;-77
2022/03/18 08:15:33;;;;;;;7.57;5.22;;;;;12.10;104100.00;;;;5006107;28;20268;-77
2022/03/18 08:18:03;;;;;;;8.77;4.88;;;;;12.20;104104.00;;;;5004735;28;20229;-77
2022/03/18 08:20:33;;;;;;;8.50;4.57;;;;;12.40;104108.00;;;;4992373;28;20207;-77
2022/03/18 08:23:00;;;;;;;4.90;3.75;;;;;12.50;104113.00;;;;5002755;28;20205;-77
2022/03/18 08:25:28;;;;;;;8.02;4.50;;;;;12.60;104130.00;;;;5004603;28;20201;-77
2022/03/18 08:27:55;;;;;;;9.60;4.93;;;;;12.80;104129.00;;;;5007613;28;20230;-77
2022/03/18 08:30:22;;;;;;;8.30;4.18;;;;;12.90;104133.00;;;;5005557;28;20218;-77
2022/03/18 08:32:49;;;;;;;10.52;4.30;;;;;13.00;104136.00;;;;5002752;28;20201;-77
2022/03/18 08:35:18;;;;;;;5.70;4.20;;;;;13.20;104142.00;;;;5003701;28;20559;-77
2022/03/18 08:37:57;;;;;;;7.65;4.57;;;;;13.30;104138.00;;;;5003257;28;20237;-77
2022/03/18 08:40:26;;;;;;;7.60;3.78;;;;;13.40;104145.00;;;;5002093;28;20212;-77
2022/03/18 08:42:54;;;;;;;6.10;3.83;;;;;13.60;104146.00;;;;5003137;28;20201;-77
2022/03/18 08:45:21;;;;;;;10.60;4.97;;;;;13.70;104152.00;;;;5014051;28;20208;-77
2022/03/18 08:47:49;;;;;;;5.93;4.00;;;;;13.80;104157.00;;;;5014618;28;20679;-77
2022/03/18 08:50:20;;;;;;;8.10;4.45;;;;;13.90;104158.00;;;;5006834;28;20471;-77
2022/03/18 08:52:47;;;;;;;6.80;4.25;;;;;14.10;104157.00;;;;5008484;28;21202;-77
2022/03/18 08:55:15;;;;;;;6.50;4.25;;;;;14.20;104163.00;;;;5007390;28;20224;-77
2022/03/18 08:57:42;;;;;;;7.32;4.95;;;;;14.40;104166.00;;;;5007266;28;20226;-77
2022/03/18 09:00:14;;;;;;;5.72;4.00;;;;;14.50;104162.00;;;;5003882;28;20195;-77
2022/03/18 09:02:42;;;;;;;6.15;4.25;;;;;14.60;104156.00;;;;5003506;28;20657;-77
2022/03/18 09:05:11;;;;;;;5.50;3.83;;;;;14.80;104168.00;;;;4997242;28;20228;-76
2022/03/18 09:07:40;;;;;;;10.30;4.63;;;;;14.90;104168.00;;;;4989917;28;20260;-77
2022/03/18 09:10:12;;;;;;;9.18;4.95;;;;;15.00;104177.00;;;;5000510;28;20229;-77
2022/03/18 09:12:45;;;;;;;8.10;3.85;;;;;15.10;104171.00;;;;4993018;28;20212;-77
2022/03/18 09:15:12;;;;;;;4.68;3.53;;;;;15.30;104173.00;;;;4996478;28;20365;-77
2022/03/18 09:17:40;;;;;;;7.47;4.57;;;;;15.50;104171.00;;;;4995599;28;20206;-77
2022/03/18 09:20:08;;;;;;;4.97;3.35;;;;;15.60;104171.00;;;;4999305;28;20202;-77
2022/03/18 09:22:35;;;;;;;6.53;3.75;;;;;15.80;104182.00;;;;4998788;28;20205;-77
2022/03/18 09:25:05;;;;;;;3.83;3.00;;;;;15.90;104181.00;;;;4998478;28;20208;-77
2022/03/18 09:27:34;;;;;;;7.10;3.15;;;;;16.10;104180.00;;;;4997790;28;20209;-77
2022/03/18 09:30:01;;;;;;;5.63;2.88;;;;;16.20;104187.00;;;;4997207;28;20229;-77
2022/03/18 09:32:28;;;;;;;5.85;2.63;;;;;16.40;104190.00;;;;5000400;28;20198;-77
2022/03/18 09:34:56;;;;;;;5.13;3.60;;;;;16.50;104199.00;;;;4995843;28;20202;-77
2022/03/18 09:37:24;;;;;;;5.70;3.08;;;;;16.60;104207.00;;;;4996119;28;20272;-77
2022/03/18 09:39:51;;;;;;;5.38;2.45;;;;;16.80;104210.00;;;;4997989;28;20230;-77
2022/03/18 09:42:20;;;;;;;5.03;1.58;;;;;16.90;104208.00;;;;4998719;28;20205;-77
2022/03/18 09:44:48;;;;;;;3.22;1.60;;;;;17.00;104215.00;;;;4996835;28;20260;-77
2022/03/18 09:47:15;;;;;;;5.60;1.58;;;;;17.10;104205.00;;;;4996963;28;20229;-77
2022/03/18 09:49:45;;;;;;;3.60;1.50;;;;;17.30;104222.00;;;;4996226;28;20208;-77
2022/03/18 09:52:15;;;;;;;5.57;1.42;;;;;17.40;104226.00;;;;4998577;28;20244;-77
2022/03/18 09:54:42;;;;;;;3.30;1.35;;;;;17.50;104237.00;;;;4997581;28;20202;-75
2022/03/18 09:57:11;;;;;;;3.60;1.90;;;;;17.70;104232.00;;;;4990635;28;20201;-77
2022/03/18 09:59:39;;;;;;;3.70;1.83;;;;;17.80;104232.00;;;;4996543;28;20676;-77
2022/03/18 10:02:29;;;;;;;3.47;1.65;;;;;17.80;104239.00;;;;5012158;28;20715;-77
2022/03/18 10:04:58;;;;;;;4.68;1.88;;;;;18.00;104238.00;;;;4997060;28;20217;-77
2022/03/18 10:07:27;;;;;;;3.90;1.83;;;;;18.20;104237.00;;;;4998845;28;20201;-77
2022/03/18 10:10:08;;;;;;;3.60;2.03;;;;;18.20;104237.00;;;;4992096;28;20249;-74
2022/03/18 10:12:37;;;;;;;3.67;1.83;;;;;18.40;104230.00;;;;4985835;28;20193;-74
2022/03/18 10:15:09;;;;;;;4.38;1.77;;;;;18.50;104237.00;;;;4989036;28;20224;-74
2022/03/18 10:17:41;;;;;;;5.57;1.90;;;;;18.60;104243.00;;;;4987772;28;20222;-74
2022/03/18 10:20:09;;;;;;;2.53;1.60;;;;;18.70;104244.00;;;;4987805;28;20288;-74
2022/03/18 10:22:37;;;;;;;5.85;2.30;;;;;18.80;104254.00;;;;4988453;28;20193;-74
2022/03/18 10:25:05;;;;;;;3.97;2.03;;;;;18.90;104251.00;;;;4987299;28;20201;-74
2022/03/18 10:27:33;;;;;;;3.65;1.90;;;;;19.00;104251.00;;;;4989093;28;20669;-74
2022/03/18 10:30:00;;;;;;;3.38;2.00;;;;;19.10;104253.00;;;;4978417;28;20309;-77
2022/03/18 10:32:29;;;;;;;3.47;2.50;;;;;19.10;104247.00;;;;4987058;28;20259;-78
2022/03/18 10:37:42;;;;;;;2.20;1.83;;;;;19.20;104256.00;;;;4985958;28;20584;-75
2022/03/18 10:40:11;;;;;;;3.53;2.20;;;;;19.30;104258.00;;;;4988050;28;20206;-75
2022/03/18 10:42:39;;;;;;;3.90;2.65;;;;;19.40;104255.00;;;;4985032;28;20292;-75
2022/03/18 10:45:08;;;;;;;5.20;2.83;;;;;19.40;104255.00;;;;4988051;28;20224;-77
2022/03/18 10:47:38;;;;;;;5.10;2.20;;;;;19.50;104260.00;;;;4986169;28;20229;-74
2022/03/18 10:50:18;;;;;;;6.70;2.42;;;;;19.60;104259.00;;;;4985250;28;20205;-75
2022/03/18 10:53:06;;;;;;;5.13;2.40;;;;;19.60;104255.00;;;;4985348;28;20205;-75
2022/03/18 10:55:36;;;;;;;5.10;2.05;;;;;19.80;104259.00;;;;4984238;28;20910;-74
2022/03/18 10:58:08;;;;;;;4.85;2.15;;;;;19.90;104263.00;;;;4985206;28;20226;-74
2022/03/18 11:00:40;;;;;;;6.20;2.72;;;;;20.00;104257.00;;;;4987561;28;20616;-78
2022/03/18 11:03:11;;;;;;;3.55;2.17;;;;;20.10;104254.00;;;;4984890;28;20204;-77
2022/03/18 11:05:40;;;;;;;3.15;2.17;;;;;20.20;104257.00;;;;4986239;28;20202;-74
2022/03/18 11:08:13;;;;;;;5.35;2.40;;;;;20.20;104261.00;;;;4984680;28;20656;-77
2022/03/18 11:13:30;;;;;;;5.53;2.55;;;;;20.40;104258.00;;;;4986540;28;20220;-75
2022/03/18 11:15:58;;;;;;;5.82;2.72;;;;;20.50;104252.00;;;;4985532;28;20717;-75
2022/03/18 11:18:29;;;;;;;6.13;3.35;;;;;20.50;104260.00;;;;4989196;28;20205;-75
2022/03/18 11:20:57;;;;;;;6.13;3.42;;;;;20.60;104255.00;;;;4985268;28;20279;-75
2022/03/18 11:23:25;;;;;;;8.85;3.78;;;;;20.70;104252.00;;;;4986448;28;20706;-75
2022/03/18 11:25:55;;;;;;;5.78;3.05;;;;;20.80;104255.00;;;;4984204;28;20281;-75
2022/03/18 11:28:23;;;;;;;4.35;2.70;;;;;20.80;104251.00;;;;4983194;28;20198;-75
2022/03/18 11:31:03;;;;;;;5.28;2.70;;;;;20.80;104256.00;;;;4985455;28;20231;-75
2022/03/18 11:33:32;;;;;;;4.68;2.50;;;;;20.90;104251.00;;;;4983093;28;20206;-76
2022/03/18 11:36:16;;;;;;;4.30;2.25;;;;;20.90;104256.00;;;;4987423;28;20289;-75
2022/03/18 11:38:56;;;;;;;6.18;2.53;;;;;21.00;104259.00;;;;4985477;28;20201;-76
2022/03/18 11:41:29;;;;;;;4.88;2.55;;;;;21.10;104251.00;;;;4984851;28;20197;-75
2022/03/18 11:43:57;;;;;;;5.78;3.30;;;;;21.20;104260.00;;;;4983838;28;20727;-75
2022/03/18 11:46:27;;;;;;;5.65;3.03;;;;;21.20;104256.00;;;;4986885;28;20260;-76
2022/03/18 11:48:58;;;;;;;7.35;3.45;;;;;21.20;104262.00;;;;4987138;28;20229;-76
2022/03/18 11:51:31;;;;;;;4.55;2.85;;;;;21.20;104255.00;;;;4986734;28;20626;-78
2022/03/18 11:54:00;;;;;;;4.63;2.50;;;;;21.30;104272.00;;;;4988729;28;20201;-77
2022/03/18 11:56:45;;;;;;;5.65;2.47;;;;;21.20;104257.00;;;;4986480;28;20201;-77
2022/03/18 11:59:38;;;;;;;4.25;2.38;;;;;21.30;104258.00;;;;4984127;28;20252;-77
2022/03/18 12:02:07;;;;;;;5.72;2.75;;;;;21.40;104262.00;;;;4983922;28;20735;-77
2022/03/18 12:04:44;;;;;;;4.75;2.58;;;;;21.40;104263.00;;;;4983224;28;20268;-77
2022/03/18 12:07:18;;;;;;;5.35;2.50;;;;;21.50;104251.00;;;;4983495;28;20197;-76
2022/03/18 12:09:56;;;;;;;5.00;2.85;;;;;21.60;104252.00;;;;4983693;28;20264;-76
2022/03/18 12:12:27;;;;;;;5.40;2.80;;;;;21.70;104246.00;;;;4984562;28;20977;-76
2022/03/18 12:14:56;;;;;;;3.88;2.60;;;;;21.80;104244.00;;;;4986097;28;20316;-76
2022/03/18 12:17:24;;;;;;;6.28;2.75;;;;;21.90;104244.00;;;;4986938;28;20463;-77
2022/03/18 12:19:55;;;;;;;4.35;2.40;;;;;21.90;104245.00;;;;4990130;28;20198;-77
2022/03/18 12:22:24;;;;;;;5.88;2.78;;;;;21.90;104246.00;;;;4991190;28;20197;-76
2022/03/18 12:24:53;;;;;;;3.60;2.30;;;;;22.00;104245.00;;;;4990717;28;20194;-76
2022/03/18 12:27:22;;;;;;;6.82;2.60;;;;;21.90;104244.00;;;;4988443;28;20202;-77
2022/03/18 12:29:51;;;;;;;3.10;2.25;;;;;22.00;104237.00;;;;4990909;28;20242;-76
2022/03/18 12:32:18;;;;;;;4.63;2.65;;;;;22.00;104237.00;;;;4987462;28;20300;-76
2022/03/18 12:34:52;;;;;;;3.75;2.83;;;;;22.00;104238.00;;;;4989641;28;20205;-76
2022/03/18 12:37:23;;;;;;;3.28;2.38;;;;;22.00;104235.00;;;;4991461;28;20335;-76
2022/03/18 12:40:05;;;;;;;3.05;2.30;;;;;22.00;104239.00;;;;4990197;28;20208;-76